sensor_id;sensor_type;location;lat;lon;timestamp;P1;durP1;ratioP1;P2;durP2;ratioP2
63688;SDS011;54895;40.928;14.480;2022-07-23T00:00:47;20.25;;;13.85;;
63688;SDS011;54895;40.928;14.480;2022-07-23T00:03:14;23.58;;;13.80;;
63688;SDS011;54895;40.928;14.480;2022-07-23T00:05:40;20.40;;;14.07;;
63688;SDS011;54895;40.928;14.480;2022-07-23T00:08:06;21.98;;;13.40;;
63688;SDS011;54895;40.928;14.480;2022-07-23T00:10:33;23.77;;;14.02;;
63688;SDS011;54895;40.928;14.480;2022-07-23T00:13:00;20.02;;;13.13;;
63688;SDS011;54895;40.928;14.480;2022-07-23T00:15:26;17.20;;;11.90;;
63688;SDS011;54895;40.928;14.480;2022-07-23T00:17:53;20.73;;;13.50;;
63688;SDS011;54895;40.928;14.480;2022-07-23T00:20:19;20.92;;;13.25;;
63688;SDS011;54895;40.928;14.480;2022-07-23T00:25:59;21.10;;;16.13;;
63688;SDS011;54895;40.928;14.480;2022-07-23T00:28:25;19.05;;;13.68;;
63688;SDS011;54895;40.928;14.480;2022-07-23T00:30:51;19.48;;;12.90;;
63688;SDS011;54895;40.928;14.480;2022-07-23T00:33:18;21.20;;;15.02;;
63688;SDS011;54895;40.928;14.480;2022-07-23T00:35:45;19.38;;;14.52;;
63688;SDS011;54895;40.928;14.480;2022-07-23T00:38:11;18.42;;;13.60;;
63688;SDS011;54895;40.928;14.480;2022-07-23T00:40:38;22.90;;;14.35;;
63688;SDS011;54895;40.928;14.480;2022-07-23T00:43:05;22.23;;;14.18;;
63688;SDS011;54895;40.928;14.480;2022-07-23T00:45:32;22.92;;;13.60;;
63688;SDS011;54895;40.928;14.480;2022-07-23T00:48:02;17.38;;;12.90;;
63688;SDS011;54895;40.928;14.480;2022-07-23T00:50:29;17.13;;;12.43;;
63688;SDS011;54895;40.928;14.480;2022-07-23T00:52:55;19.52;;;12.80;;
63688;SDS011;54895;40.928;14.480;2022-07-23T00:55:23;20.50;;;12.20;;
63688;SDS011;54895;40.928;14.480;2022-07-23T00:57:54;14.82;;;11.18;;
63688;SDS011;54895;40.928;14.480;2022-07-23T01:00:21;16.60;;;12.05;;
63688;SDS011;54895;40.928;14.480;2022-07-23T01:02:48;16.08;;;12.13;;
63688;SDS011;54895;40.928;14.480;2022-07-23T01:05:14;14.90;;;10.98;;
63688;SDS011;54895;40.928;14.480;2022-07-23T01:07:41;12.93;;;10.93;;
63688;SDS011;54895;40.928;14.480;2022-07-23T01:10:08;14.88;;;10.60;;
63688;SDS011;54895;40.928;14.480;2022-07-23T01:13:03;11.73;;;10.40;;
63688;SDS011;54895;40.928;14.480;2022-07-23T01:15:31;13.50;;;10.63;;
63688;SDS011;54895;40.928;14.480;2022-07-23T01:17:59;14.43;;;10.45;;
63688;SDS011;54895;40.928;14.480;2022-07-23T01:20:26;13.80;;;10.35;;
63688;SDS011;54895;40.928;14.480;2022-07-23T01:22:53;16.25;;;10.50;;
63688;SDS011;54895;40.928;14.480;2022-07-23T01:28:05;13.15;;;10.68;;
63688;SDS011;54895;40.928;14.480;2022-07-23T01:30:32;11.63;;;10.43;;
63688;SDS011;54895;40.928;14.480;2022-07-23T01:33:00;17.20;;;11.23;;
63688;SDS011;54895;40.928;14.480;2022-07-23T01:35:27;15.77;;;10.77;;
63688;SDS011;54895;40.928;14.480;2022-07-23T01:37:58;13.90;;;10.40;;
63688;SDS011;54895;40.928;14.480;2022-07-23T01:40:24;14.45;;;11.30;;
63688;SDS011;54895;40.928;14.480;2022-07-23T01:42:52;12.98;;;11.57;;
63688;SDS011;54895;40.928;14.480;2022-07-23T01:45:19;13.65;;;11.65;;
63688;SDS011;54895;40.928;14.480;2022-07-23T01:47:49;17.23;;;11.77;;
63688;SDS011;54895;40.928;14.480;2022-07-23T01:50:18;14.27;;;10.73;;
63688;SDS011;54895;40.928;14.480;2022-07-23T01:53:00;17.57;;;10.93;;
63688;SDS011;54895;40.928;14.480;2022-07-23T01:55:27;13.15;;;11.13;;
63688;SDS011;54895;40.928;14.480;2022-07-23T01:57:53;13.98;;;11.07;;
63688;SDS011;54895;40.928;14.480;2022-07-23T02:00:22;15.63;;;11.30;;
63688;SDS011;54895;40.928;14.480;2022-07-23T02:02:51;17.15;;;10.50;;
63688;SDS011;54895;40.928;14.480;2022-07-23T02:05:20;17.40;;;12.27;;
63688;SDS011;54895;40.928;14.480;2022-07-23T02:07:47;14.48;;;11.63;;
63688;SDS011;54895;40.928;14.480;2022-07-23T02:10:14;13.85;;;11.70;;
63688;SDS011;54895;40.928;14.480;2022-07-23T02:12:41;14.25;;;10.93;;
63688;SDS011;54895;40.928;14.480;2022-07-23T02:15:09;13.35;;;10.85;;
63688;SDS011;54895;40.928;14.480;2022-07-23T02:17:36;12.20;;;10.45;;
63688;SDS011;54895;40.928;14.480;2022-07-23T02:20:03;16.55;;;11.77;;
63688;SDS011;54895;40.928;14.480;2022-07-23T02:22:31;13.27;;;10.55;;
63688;SDS011;54895;40.928;14.480;2022-07-23T02:28:18;15.38;;;10.85;;
63688;SDS011;54895;40.928;14.480;2022-07-23T02:30:45;13.65;;;10.90;;
63688;SDS011;54895;40.928;14.480;2022-07-23T02:33:11;12.73;;;10.23;;
63688;SDS011;54895;40.928;14.480;2022-07-23T02:35:39;12.90;;;9.88;;
63688;SDS011;54895;40.928;14.480;2022-07-23T02:38:07;15.80;;;10.30;;
63688;SDS011;54895;40.928;14.480;2022-07-23T02:40:35;15.27;;;11.40;;
63688;SDS011;54895;40.928;14.480;2022-07-23T02:43:01;12.77;;;10.68;;
63688;SDS011;54895;40.928;14.480;2022-07-23T02:45:28;13.45;;;10.70;;
63688;SDS011;54895;40.928;14.480;2022-07-23T02:47:55;13.65;;;10.88;;
63688;SDS011;54895;40.928;14.480;2022-07-23T02:50:21;15.57;;;11.50;;
63688;SDS011;54895;40.928;14.480;2022-07-23T02:52:48;14.52;;;12.07;;
63688;SDS011;54895;40.928;14.480;2022-07-23T02:55:15;16.90;;;12.23;;
63688;SDS011;54895;40.928;14.480;2022-07-23T02:57:41;13.80;;;11.55;;
63688;SDS011;54895;40.928;14.480;2022-07-23T03:00:08;16.38;;;12.20;;
63688;SDS011;54895;40.928;14.480;2022-07-23T03:02:35;13.93;;;11.65;;
63688;SDS011;54895;40.928;14.480;2022-07-23T03:05:02;17.45;;;12.23;;
63688;SDS011;54895;40.928;14.480;2022-07-23T03:07:28;14.05;;;11.45;;
63688;SDS011;54895;40.928;14.480;2022-07-23T03:09:55;15.07;;;11.40;;
63688;SDS011;54895;40.928;14.480;2022-07-23T03:12:22;13.77;;;11.90;;
63688;SDS011;54895;40.928;14.480;2022-07-23T03:14:49;13.85;;;11.13;;
63688;SDS011;54895;40.928;14.480;2022-07-23T03:17:16;13.13;;;10.50;;
63688;SDS011;54895;40.928;14.480;2022-07-23T03:19:42;12.35;;;10.82;;
63688;SDS011;54895;40.928;14.480;2022-07-23T03:22:09;14.13;;;10.20;;
63688;SDS011;54895;40.928;14.480;2022-07-23T03:24:35;14.30;;;10.98;;
63688;SDS011;54895;40.928;14.480;2022-07-23T03:30:30;12.95;;;10.18;;
63688;SDS011;54895;40.928;14.480;2022-07-23T03:32:56;13.27;;;10.18;;
63688;SDS011;54895;40.928;14.480;2022-07-23T03:35:23;13.73;;;10.75;;
63688;SDS011;54895;40.928;14.480;2022-07-23T03:38:04;13.15;;;11.00;;
63688;SDS011;54895;40.928;14.480;2022-07-23T03:40:31;16.20;;;10.90;;
63688;SDS011;54895;40.928;14.480;2022-07-23T03:42:57;14.63;;;11.32;;
63688;SDS011;54895;40.928;14.480;2022-07-23T03:45:23;13.23;;;10.40;;
63688;SDS011;54895;40.928;14.480;2022-07-23T03:47:50;14.27;;;10.77;;
63688;SDS011;54895;40.928;14.480;2022-07-23T03:50:17;13.70;;;10.40;;
63688;SDS011;54895;40.928;14.480;2022-07-23T03:52:43;12.43;;;10.38;;
63688;SDS011;54895;40.928;14.480;2022-07-23T03:55:11;12.95;;;10.57;;
63688;SDS011;54895;40.928;14.480;2022-07-23T03:57:38;13.10;;;10.90;;
63688;SDS011;54895;40.928;14.480;2022-07-23T04:00:05;19.17;;;10.82;;
63688;SDS011;54895;40.928;14.480;2022-07-23T04:02:39;35.38;;;12.50;;
63688;SDS011;54895;40.928;14.480;2022-07-23T04:05:07;33.85;;;12.40;;
63688;SDS011;54895;40.928;14.480;2022-07-23T04:07:33;41.17;;;13.32;;
63688;SDS011;54895;40.928;14.480;2022-07-23T04:10:00;31.10;;;12.75;;
63688;SDS011;54895;40.928;14.480;2022-07-23T04:12:27;28.08;;;11.70;;
63688;SDS011;54895;40.928;14.480;2022-07-23T04:14:54;16.70;;;12.50;;
63688;SDS011;54895;40.928;14.480;2022-07-23T04:17:21;13.00;;;11.23;;
63688;SDS011;54895;40.928;14.480;2022-07-23T04:19:47;15.32;;;11.75;;
63688;SDS011;54895;40.928;14.480;2022-07-23T04:22:17;18.67;;;12.57;;
63688;SDS011;54895;40.928;14.480;2022-07-23T04:24:43;35.05;;;12.80;;
63688;SDS011;54895;40.928;14.480;2022-07-23T04:27:10;38.28;;;12.27;;
63688;SDS011;54895;40.928;14.480;2022-07-23T04:29:36;64.53;;;14.48;;
63688;SDS011;54895;40.928;14.480;2022-07-23T04:32:03;74.38;;;15.10;;
63688;SDS011;54895;40.928;14.480;2022-07-23T04:34:30;71.55;;;16.00;;
63688;SDS011;54895;40.928;14.480;2022-07-23T04:36:58;33.50;;;14.20;;
63688;SDS011;54895;40.928;14.480;2022-07-23T04:39:26;67.35;;;15.43;;
63688;SDS011;54895;40.928;14.480;2022-07-23T04:41:53;29.98;;;15.23;;
63688;SDS011;54895;40.928;14.480;2022-07-23T04:44:20;25.80;;;14.10;;
63688;SDS011;54895;40.928;14.480;2022-07-23T04:46:48;22.73;;;13.75;;
63688;SDS011;54895;40.928;14.480;2022-07-23T04:49:14;27.75;;;13.23;;
63688;SDS011;54895;40.928;14.480;2022-07-23T04:51:41;32.72;;;14.75;;
63688;SDS011;54895;40.928;14.480;2022-07-23T04:54:08;27.05;;;13.35;;
63688;SDS011;54895;40.928;14.480;2022-07-23T04:56:36;26.20;;;13.45;;
63688;SDS011;54895;40.928;14.480;2022-07-23T04:59:02;19.90;;;14.02;;
63688;SDS011;54895;40.928;14.480;2022-07-23T05:01:32;19.73;;;14.23;;
63688;SDS011;54895;40.928;14.480;2022-07-23T05:03:59;18.15;;;13.30;;
63688;SDS011;54895;40.928;14.480;2022-07-23T05:06:30;16.38;;;13.38;;
63688;SDS011;54895;40.928;14.480;2022-07-23T05:08:57;20.55;;;13.75;;
63688;SDS011;54895;40.928;14.480;2022-07-23T05:11:24;15.73;;;14.07;;
63688;SDS011;54895;40.928;14.480;2022-07-23T05:13:51;18.00;;;13.52;;
63688;SDS011;54895;40.928;14.480;2022-07-23T05:16:19;19.48;;;13.93;;
63688;SDS011;54895;40.928;14.480;2022-07-23T05:18:47;17.75;;;14.02;;
63688;SDS011;54895;40.928;14.480;2022-07-23T05:21:13;17.00;;;13.55;;
63688;SDS011;54895;40.928;14.480;2022-07-23T05:23:40;24.55;;;16.13;;
63688;SDS011;54895;40.928;14.480;2022-07-23T05:26:09;22.48;;;15.32;;
63688;SDS011;54895;40.928;14.480;2022-07-23T05:32:12;19.05;;;14.57;;
63688;SDS011;54895;40.928;14.480;2022-07-23T05:37:11;21.00;;;13.60;;
63688;SDS011;54895;40.928;14.480;2022-07-23T05:39:38;22.00;;;13.45;;
63688;SDS011;54895;40.928;14.480;2022-07-23T05:42:04;24.70;;;14.20;;
63688;SDS011;54895;40.928;14.480;2022-07-23T05:44:31;19.35;;;12.95;;
63688;SDS011;54895;40.928;14.480;2022-07-23T05:46:57;21.80;;;12.63;;
63688;SDS011;54895;40.928;14.480;2022-07-23T05:49:26;22.15;;;14.30;;
63688;SDS011;54895;40.928;14.480;2022-07-23T05:52:18;25.00;;;18.52;;
63688;SDS011;54895;40.928;14.480;2022-07-23T05:55:04;22.65;;;14.52;;
63688;SDS011;54895;40.928;14.480;2022-07-23T05:57:31;17.67;;;13.02;;
63688;SDS011;54895;40.928;14.480;2022-07-23T05:59:58;15.70;;;11.18;;
63688;SDS011;54895;40.928;14.480;2022-07-23T06:02:25;19.30;;;11.43;;
63688;SDS011;54895;40.928;14.480;2022-07-23T06:04:52;21.05;;;11.77;;
63688;SDS011;54895;40.928;14.480;2022-07-23T06:07:27;22.08;;;12.45;;
63688;SDS011;54895;40.928;14.480;2022-07-23T06:09:53;21.80;;;12.55;;
63688;SDS011;54895;40.928;14.480;2022-07-23T06:12:20;26.30;;;12.60;;
63688;SDS011;54895;40.928;14.480;2022-07-23T06:14:46;23.77;;;13.63;;
63688;SDS011;54895;40.928;14.480;2022-07-23T06:17:16;22.55;;;13.73;;
63688;SDS011;54895;40.928;14.480;2022-07-23T06:19:42;23.15;;;12.93;;
63688;SDS011;54895;40.928;14.480;2022-07-23T06:22:09;24.98;;;13.75;;
63688;SDS011;54895;40.928;14.480;2022-07-23T06:24:36;24.15;;;12.52;;
63688;SDS011;54895;40.928;14.480;2022-07-23T06:27:03;21.15;;;12.55;;
63688;SDS011;54895;40.928;14.480;2022-07-23T06:33:37;22.10;;;12.48;;
63688;SDS011;54895;40.928;14.480;2022-07-23T06:36:03;24.65;;;12.68;;
63688;SDS011;54895;40.928;14.480;2022-07-23T06:38:29;28.48;;;14.43;;
63688;SDS011;54895;40.928;14.480;2022-07-23T06:40:56;25.23;;;14.75;;
63688;SDS011;54895;40.928;14.480;2022-07-23T06:43:22;33.35;;;15.73;;
63688;SDS011;54895;40.928;14.480;2022-07-23T06:45:54;22.30;;;13.65;;
63688;SDS011;54895;40.928;14.480;2022-07-23T06:48:21;19.77;;;12.20;;
63688;SDS011;54895;40.928;14.480;2022-07-23T06:50:48;16.98;;;11.45;;
63688;SDS011;54895;40.928;14.480;2022-07-23T06:53:14;17.48;;;12.13;;
63688;SDS011;54895;40.928;14.480;2022-07-23T06:55:43;18.75;;;12.55;;
63688;SDS011;54895;40.928;14.480;2022-07-23T06:58:11;24.00;;;14.60;;
63688;SDS011;54895;40.928;14.480;2022-07-23T07:00:40;19.10;;;12.60;;
63688;SDS011;54895;40.928;14.480;2022-07-23T07:03:06;21.48;;;13.10;;
63688;SDS011;54895;40.928;14.480;2022-07-23T07:05:33;18.92;;;11.23;;
63688;SDS011;54895;40.928;14.480;2022-07-23T07:08:01;17.02;;;10.40;;
63688;SDS011;54895;40.928;14.480;2022-07-23T07:10:30;17.83;;;9.93;;
63688;SDS011;54895;40.928;14.480;2022-07-23T07:12:56;27.48;;;12.48;;
63688;SDS011;54895;40.928;14.480;2022-07-23T07:15:22;23.15;;;12.80;;
63688;SDS011;54895;40.928;14.480;2022-07-23T07:17:49;14.73;;;11.23;;
63688;SDS011;54895;40.928;14.480;2022-07-23T07:20:15;12.88;;;9.18;;
63688;SDS011;54895;40.928;14.480;2022-07-23T07:22:42;19.05;;;10.23;;
63688;SDS011;54895;40.928;14.480;2022-07-23T07:25:08;11.75;;;9.43;;
63688;SDS011;54895;40.928;14.480;2022-07-23T07:27:35;10.77;;;8.48;;
63688;SDS011;54895;40.928;14.480;2022-07-23T07:30:03;12.27;;;8.63;;
63688;SDS011;54895;40.928;14.480;2022-07-23T07:36:08;9.00;;;6.57;;
63688;SDS011;54895;40.928;14.480;2022-07-23T07:38:36;8.60;;;6.40;;
63688;SDS011;54895;40.928;14.480;2022-07-23T07:41:02;8.68;;;6.53;;
63688;SDS011;54895;40.928;14.480;2022-07-23T07:43:29;9.00;;;7.00;;
63688;SDS011;54895;40.928;14.480;2022-07-23T07:45:55;8.23;;;6.93;;
63688;SDS011;54895;40.928;14.480;2022-07-23T07:48:22;7.88;;;7.07;;
63688;SDS011;54895;40.928;14.480;2022-07-23T07:50:48;12.75;;;7.13;;
63688;SDS011;54895;40.928;14.480;2022-07-23T07:53:14;10.25;;;7.10;;
63688;SDS011;54895;40.928;14.480;2022-07-23T07:55:41;10.70;;;7.20;;
63688;SDS011;54895;40.928;14.480;2022-07-23T07:58:07;11.95;;;7.22;;
63688;SDS011;54895;40.928;14.480;2022-07-23T08:00:33;10.98;;;7.53;;
63688;SDS011;54895;40.928;14.480;2022-07-23T08:02:59;9.15;;;6.82;;
63688;SDS011;54895;40.928;14.480;2022-07-23T08:05:27;11.82;;;7.20;;
63688;SDS011;54895;40.928;14.480;2022-07-23T08:07:55;12.05;;;7.78;;
63688;SDS011;54895;40.928;14.480;2022-07-23T08:10:23;12.10;;;7.85;;
63688;SDS011;54895;40.928;14.480;2022-07-23T08:12:51;10.75;;;6.90;;
63688;SDS011;54895;40.928;14.480;2022-07-23T08:15:21;12.13;;;7.05;;
63688;SDS011;54895;40.928;14.480;2022-07-23T08:17:48;8.02;;;6.38;;
63688;SDS011;54895;40.928;14.480;2022-07-23T08:20:15;10.48;;;7.22;;
63688;SDS011;54895;40.928;14.480;2022-07-23T08:25:11;8.77;;;6.90;;
63688;SDS011;54895;40.928;14.480;2022-07-23T08:27:38;8.57;;;6.80;;
63688;SDS011;54895;40.928;14.480;2022-07-23T08:30:05;12.40;;;7.53;;
63688;SDS011;54895;40.928;14.480;2022-07-23T08:35:54;12.60;;;8.35;;
63688;SDS011;54895;40.928;14.480;2022-07-23T08:38:22;8.50;;;6.70;;
63688;SDS011;54895;40.928;14.480;2022-07-23T08:40:49;9.15;;;7.10;;
63688;SDS011;54895;40.928;14.480;2022-07-23T08:43:17;10.85;;;7.30;;
63688;SDS011;54895;40.928;14.480;2022-07-23T08:45:47;12.25;;;7.55;;
63688;SDS011;54895;40.928;14.480;2022-07-23T08:48:15;10.48;;;7.07;;
63688;SDS011;54895;40.928;14.480;2022-07-23T08:50:47;8.83;;;7.20;;
63688;SDS011;54895;40.928;14.480;2022-07-23T08:53:15;10.52;;;6.93;;
63688;SDS011;54895;40.928;14.480;2022-07-23T08:55:43;9.02;;;6.63;;
63688;SDS011;54895;40.928;14.480;2022-07-23T08:58:14;9.75;;;7.28;;
63688;SDS011;54895;40.928;14.480;2022-07-23T09:00:41;9.52;;;6.95;;
63688;SDS011;54895;40.928;14.480;2022-07-23T09:03:12;8.10;;;6.43;;
63688;SDS011;54895;40.928;14.480;2022-07-23T09:05:43;10.05;;;6.30;;
63688;SDS011;54895;40.928;14.480;2022-07-23T09:10:44;9.23;;;5.90;;
63688;SDS011;54895;40.928;14.480;2022-07-23T09:16:06;8.40;;;6.22;;
63688;SDS011;54895;40.928;14.480;2022-07-23T09:18:39;9.77;;;6.43;;
63688;SDS011;54895;40.928;14.480;2022-07-23T09:21:10;36.42;;;8.77;;
63688;SDS011;54895;40.928;14.480;2022-07-23T09:23:42;15.18;;;6.95;;
63688;SDS011;54895;40.928;14.480;2022-07-23T09:26:24;8.52;;;6.78;;
63688;SDS011;54895;40.928;14.480;2022-07-23T09:28:55;10.93;;;6.97;;
63688;SDS011;54895;40.928;14.480;2022-07-23T09:31:31;7.15;;;6.45;;
63688;SDS011;54895;40.928;14.480;2022-07-23T09:34:08;9.45;;;7.05;;
63688;SDS011;54895;40.928;14.480;2022-07-23T09:36:35;9.38;;;6.05;;
63688;SDS011;54895;40.928;14.480;2022-07-23T09:39:02;6.88;;;5.90;;
63688;SDS011;54895;40.928;14.480;2022-07-23T09:41:40;10.07;;;6.82;;
63688;SDS011;54895;40.928;14.480;2022-07-23T09:44:25;8.65;;;6.22;;
63688;SDS011;54895;40.928;14.480;2022-07-23T09:46:52;8.10;;;6.20;;
63688;SDS011;54895;40.928;14.480;2022-07-23T09:49:24;9.70;;;6.22;;
63688;SDS011;54895;40.928;14.480;2022-07-23T09:51:52;8.02;;;6.10;;
63688;SDS011;54895;40.928;14.480;2022-07-23T09:54:22;8.85;;;6.20;;
63688;SDS011;54895;40.928;14.480;2022-07-23T09:56:52;10.07;;;6.53;;
63688;SDS011;54895;40.928;14.480;2022-07-23T09:59:22;9.88;;;6.60;;
63688;SDS011;54895;40.928;14.480;2022-07-23T10:01:51;6.88;;;6.10;;
63688;SDS011;54895;40.928;14.480;2022-07-23T10:04:20;13.15;;;6.70;;
63688;SDS011;54895;40.928;14.480;2022-07-23T10:06:54;9.05;;;6.20;;
63688;SDS011;54895;40.928;14.480;2022-07-23T10:09:48;8.52;;;6.40;;
63688;SDS011;54895;40.928;14.480;2022-07-23T10:12:36;7.45;;;5.88;;
63688;SDS011;54895;40.928;14.480;2022-07-23T10:15:22;10.38;;;6.30;;
63688;SDS011;54895;40.928;14.480;2022-07-23T10:17:49;9.15;;;6.53;;
63688;SDS011;54895;40.928;14.480;2022-07-23T10:20:16;10.73;;;6.15;;
63688;SDS011;54895;40.928;14.480;2022-07-23T10:23:30;10.25;;;6.03;;
63688;SDS011;54895;40.928;14.480;2022-07-23T10:28:50;8.35;;;5.75;;
63688;SDS011;54895;40.928;14.480;2022-07-23T10:37:05;8.15;;;6.10;;
63688;SDS011;54895;40.928;14.480;2022-07-23T10:39:41;6.65;;;5.57;;
63688;SDS011;54895;40.928;14.480;2022-07-23T10:42:11;8.18;;;5.57;;
63688;SDS011;54895;40.928;14.480;2022-07-23T10:44:41;6.85;;;5.40;;
63688;SDS011;54895;40.928;14.480;2022-07-23T10:47:12;6.00;;;5.40;;
63688;SDS011;54895;40.928;14.480;2022-07-23T10:49:49;14.30;;;6.18;;
63688;SDS011;54895;40.928;14.480;2022-07-23T10:52:26;6.43;;;5.00;;
63688;SDS011;54895;40.928;14.480;2022-07-23T10:54:56;8.02;;;5.30;;
63688;SDS011;54895;40.928;14.480;2022-07-23T10:57:49;6.93;;;5.28;;
63688;SDS011;54895;40.928;14.480;2022-07-23T11:00:20;8.77;;;5.20;;
63688;SDS011;54895;40.928;14.480;2022-07-23T11:02:55;8.82;;;5.63;;
63688;SDS011;54895;40.928;14.480;2022-07-23T11:05:46;10.88;;;5.53;;
63688;SDS011;54895;40.928;14.480;2022-07-23T11:10:45;8.73;;;4.80;;
63688;SDS011;54895;40.928;14.480;2022-07-23T11:16:20;6.90;;;5.22;;
63688;SDS011;54895;40.928;14.480;2022-07-23T11:26:59;6.88;;;5.50;;
63688;SDS011;54895;40.928;14.480;2022-07-23T11:31:55;7.40;;;5.82;;
63688;SDS011;54895;40.928;14.480;2022-07-23T11:37:06;10.00;;;5.70;;
63688;SDS011;54895;40.928;14.480;2022-07-23T11:39:34;5.60;;;5.10;;
63688;SDS011;54895;40.928;14.480;2022-07-23T11:42:02;6.90;;;5.78;;
63688;SDS011;54895;40.928;14.480;2022-07-23T11:44:33;10.70;;;5.43;;
63688;SDS011;54895;40.928;14.480;2022-07-23T11:47:08;6.27;;;5.60;;
63688;SDS011;54895;40.928;14.480;2022-07-23T11:49:37;8.23;;;5.88;;
63688;SDS011;54895;40.928;14.480;2022-07-23T11:54:48;8.20;;;5.30;;
63688;SDS011;54895;40.928;14.480;2022-07-23T11:57:15;8.55;;;5.70;;
63688;SDS011;54895;40.928;14.480;2022-07-23T11:59:42;6.82;;;4.80;;
63688;SDS011;54895;40.928;14.480;2022-07-23T12:02:09;7.40;;;5.70;;
63688;SDS011;54895;40.928;14.480;2022-07-23T12:04:43;8.48;;;6.10;;
63688;SDS011;54895;40.928;14.480;2022-07-23T12:10:01;7.68;;;5.57;;
63688;SDS011;54895;40.928;14.480;2022-07-23T12:12:37;7.65;;;5.05;;
63688;SDS011;54895;40.928;14.480;2022-07-23T12:15:08;5.18;;;4.30;;
63688;SDS011;54895;40.928;14.480;2022-07-23T12:17:38;9.40;;;5.07;;
63688;SDS011;54895;40.928;14.480;2022-07-23T12:20:06;17.17;;;5.25;;
63688;SDS011;54895;40.928;14.480;2022-07-23T12:22:35;5.93;;;4.03;;
63688;SDS011;54895;40.928;14.480;2022-07-23T12:25:19;7.13;;;4.30;;
63688;SDS011;54895;40.928;14.480;2022-07-23T12:27:57;8.63;;;5.18;;
63688;SDS011;54895;40.928;14.480;2022-07-23T12:33:15;7.28;;;5.28;;
63688;SDS011;54895;40.928;14.480;2022-07-23T12:35:48;7.35;;;4.78;;
63688;SDS011;54895;40.928;14.480;2022-07-23T12:38:16;6.13;;;4.78;;
63688;SDS011;54895;40.928;14.480;2022-07-23T12:40:53;9.70;;;4.25;;
63688;SDS011;54895;40.928;14.480;2022-07-23T12:46:04;5.75;;;4.07;;
63688;SDS011;54895;40.928;14.480;2022-07-23T12:48:37;9.45;;;4.03;;
63688;SDS011;54895;40.928;14.480;2022-07-23T12:51:28;6.45;;;4.53;;
63688;SDS011;54895;40.928;14.480;2022-07-23T12:53:59;5.32;;;4.13;;
63688;SDS011;54895;40.928;14.480;2022-07-23T12:56:29;6.45;;;4.22;;
63688;SDS011;54895;40.928;14.480;2022-07-23T12:58:58;5.17;;;3.90;;
63688;SDS011;54895;40.928;14.480;2022-07-23T13:01:33;8.18;;;3.80;;
63688;SDS011;54895;40.928;14.480;2022-07-23T13:04:13;5.03;;;3.60;;
63688;SDS011;54895;40.928;14.480;2022-07-23T13:06:51;5.95;;;3.80;;
63688;SDS011;54895;40.928;14.480;2022-07-23T13:09:19;5.32;;;4.00;;
63688;SDS011;54895;40.928;14.480;2022-07-23T13:11:47;7.63;;;3.70;;
63688;SDS011;54895;40.928;14.480;2022-07-23T13:14:15;4.43;;;3.80;;
63688;SDS011;54895;40.928;14.480;2022-07-23T13:16:44;7.32;;;3.63;;
63688;SDS011;54895;40.928;14.480;2022-07-23T13:19:11;7.60;;;3.80;;
63688;SDS011;54895;40.928;14.480;2022-07-23T13:21:39;6.20;;;4.03;;
63688;SDS011;54895;40.928;14.480;2022-07-23T13:24:06;5.75;;;3.75;;
63688;SDS011;54895;40.928;14.480;2022-07-23T13:26:34;4.38;;;3.13;;
63688;SDS011;54895;40.928;14.480;2022-07-23T13:29:00;5.90;;;3.67;;
63688;SDS011;54895;40.928;14.480;2022-07-23T13:31:26;5.95;;;3.67;;
63688;SDS011;54895;40.928;14.480;2022-07-23T13:33:52;6.35;;;3.45;;
63688;SDS011;54895;40.928;14.480;2022-07-23T13:36:19;6.63;;;3.83;;
63688;SDS011;54895;40.928;14.480;2022-07-23T13:38:45;5.25;;;3.85;;
63688;SDS011;54895;40.928;14.480;2022-07-23T13:41:11;5.25;;;3.80;;
63688;SDS011;54895;40.928;14.480;2022-07-23T13:43:38;4.78;;;3.63;;
63688;SDS011;54895;40.928;14.480;2022-07-23T13:46:04;4.78;;;3.63;;
63688;SDS011;54895;40.928;14.480;2022-07-23T13:48:30;6.47;;;4.22;;
63688;SDS011;54895;40.928;14.480;2022-07-23T13:50:57;4.15;;;3.47;;
63688;SDS011;54895;40.928;14.480;2022-07-23T13:53:23;6.78;;;3.70;;
63688;SDS011;54895;40.928;14.480;2022-07-23T13:55:51;6.03;;;3.53;;
63688;SDS011;54895;40.928;14.480;2022-07-23T13:58:18;4.00;;;3.35;;
63688;SDS011;54895;40.928;14.480;2022-07-23T14:00:47;4.63;;;3.45;;
63688;SDS011;54895;40.928;14.480;2022-07-23T14:03:15;7.15;;;3.70;;
63688;SDS011;54895;40.928;14.480;2022-07-23T14:05:43;3.78;;;3.47;;
63688;SDS011;54895;40.928;14.480;2022-07-23T14:08:09;6.47;;;3.95;;
63688;SDS011;54895;40.928;14.480;2022-07-23T14:10:36;8.95;;;3.45;;
63688;SDS011;54895;40.928;14.480;2022-07-23T14:13:03;5.45;;;3.80;;
63688;SDS011;54895;40.928;14.480;2022-07-23T14:15:30;9.63;;;4.28;;
63688;SDS011;54895;40.928;14.480;2022-07-23T14:17:57;7.35;;;3.70;;
63688;SDS011;54895;40.928;14.480;2022-07-23T14:20:25;6.47;;;3.60;;
63688;SDS011;54895;40.928;14.480;2022-07-23T14:22:51;10.52;;;3.70;;
63688;SDS011;54895;40.928;14.480;2022-07-23T14:25:20;7.15;;;3.28;;
63688;SDS011;54895;40.928;14.480;2022-07-23T14:27:47;6.28;;;3.20;;
63688;SDS011;54895;40.928;14.480;2022-07-23T14:30:13;4.30;;;3.00;;
63688;SDS011;54895;40.928;14.480;2022-07-23T14:36:29;4.97;;;3.30;;
63688;SDS011;54895;40.928;14.480;2022-07-23T14:38:55;5.05;;;3.20;;
63688;SDS011;54895;40.928;14.480;2022-07-23T14:41:22;8.00;;;3.60;;
63688;SDS011;54895;40.928;14.480;2022-07-23T14:43:48;4.88;;;3.22;;
63688;SDS011;54895;40.928;14.480;2022-07-23T14:46:14;5.38;;;3.13;;
63688;SDS011;54895;40.928;14.480;2022-07-23T14:48:41;12.80;;;3.65;;
63688;SDS011;54895;40.928;14.480;2022-07-23T14:51:07;5.05;;;3.17;;
63688;SDS011;54895;40.928;14.480;2022-07-23T14:53:33;5.05;;;3.22;;
63688;SDS011;54895;40.928;14.480;2022-07-23T14:56:00;5.97;;;3.30;;
63688;SDS011;54895;40.928;14.480;2022-07-23T14:58:26;5.13;;;3.05;;
63688;SDS011;54895;40.928;14.480;2022-07-23T15:00:52;5.07;;;3.17;;
63688;SDS011;54895;40.928;14.480;2022-07-23T15:03:20;3.97;;;3.03;;
63688;SDS011;54895;40.928;14.480;2022-07-23T15:05:46;4.40;;;3.05;;
63688;SDS011;54895;40.928;14.480;2022-07-23T15:08:13;4.60;;;3.00;;
63688;SDS011;54895;40.928;14.480;2022-07-23T15:10:39;4.07;;;3.42;;
63688;SDS011;54895;40.928;14.480;2022-07-23T15:13:05;7.30;;;3.05;;
63688;SDS011;54895;40.928;14.480;2022-07-23T15:15:32;4.78;;;3.20;;
63688;SDS011;54895;40.928;14.480;2022-07-23T15:17:59;4.78;;;3.40;;
63688;SDS011;54895;40.928;14.480;2022-07-23T15:20:25;6.28;;;4.28;;
63688;SDS011;54895;40.928;14.480;2022-07-23T15:22:52;8.15;;;4.55;;
63688;SDS011;54895;40.928;14.480;2022-07-23T15:25:20;4.47;;;3.40;;
63688;SDS011;54895;40.928;14.480;2022-07-23T15:27:46;3.25;;;2.78;;
63688;SDS011;54895;40.928;14.480;2022-07-23T15:30:13;4.53;;;2.97;;
63688;SDS011;54895;40.928;14.480;2022-07-23T15:36:28;5.13;;;2.88;;
63688;SDS011;54895;40.928;14.480;2022-07-23T15:38:55;6.32;;;3.35;;
63688;SDS011;54895;40.928;14.480;2022-07-23T15:41:21;4.97;;;2.85;;
63688;SDS011;54895;40.928;14.480;2022-07-23T15:43:48;5.18;;;2.88;;
63688;SDS011;54895;40.928;14.480;2022-07-23T15:46:14;4.82;;;3.20;;
63688;SDS011;54895;40.928;14.480;2022-07-23T15:48:42;6.57;;;3.15;;
63688;SDS011;54895;40.928;14.480;2022-07-23T15:51:10;5.32;;;2.70;;
63688;SDS011;54895;40.928;14.480;2022-07-23T15:53:37;4.47;;;3.10;;